sensor_id;sensor_type;location;lat;lon;timestamp;pressure;altitude;pressure_sealevel;temperature;humidity
6090;BME280;3073;42.660;23.316;2023-02-22T00:00:11;94509.09;;;8.56;61.19
6090;BME280;3073;42.660;23.316;2023-02-22T00:02:48;94510.22;;;8.48;61.80
6090;BME280;3073;42.660;23.316;2023-02-22T00:05:16;94516.72;;;8.44;62.00
6090;BME280;3073;42.660;23.316;2023-02-22T00:07:46;94515.06;;;8.38;63.39
6090;BME280;3073;42.660;23.316;2023-02-22T00:10:14;94515.53;;;8.47;62.39
6090;BME280;3073;42.660;23.316;2023-02-22T00:12:46;94519.50;;;8.31;64.00
6090;BME280;3073;42.660;23.316;2023-02-22T00:15:15;94523.47;;;8.39;63.58
6090;BME280;3073;42.660;23.316;2023-02-22T00:17:43;94515.97;;;8.32;63.72
6090;BME280;3073;42.660;23.316;2023-02-22T00:20:12;94517.28;;;8.23;65.08
6090;BME280;3073;42.660;23.316;2023-02-22T00:22:40;94518.91;;;8.06;66.54
6090;BME280;3073;42.660;23.316;2023-02-22T00:25:08;94516.16;;;8.19;66.30
6090;BME280;3073;42.660;23.316;2023-02-22T00:27:35;94522.28;;;8.30;65.58
6090;BME280;3073;42.660;23.316;2023-02-22T00:30:03;94519.38;;;8.38;64.84
6090;BME280;3073;42.660;23.316;2023-02-22T00:32:29;94517.63;;;8.38;65.28
6090;BME280;3073;42.660;23.316;2023-02-22T00:34:56;94509.09;;;8.44;64.62
6090;BME280;3073;42.660;23.316;2023-02-22T00:37:23;94500.50;;;8.45;64.42
6090;BME280;3073;42.660;23.316;2023-02-22T00:39:51;94499.59;;;8.51;63.44
6090;BME280;3073;42.660;23.316;2023-02-22T00:42:19;94495.63;;;8.55;64.70
6090;BME280;3073;42.660;23.316;2023-02-22T00:44:46;94494.63;;;8.56;64.08
6090;BME280;3073;42.660;23.316;2023-02-22T00:47:13;94495.63;;;8.55;65.70
6090;BME280;3073;42.660;23.316;2023-02-22T00:49:40;94485.78;;;8.36;65.94
6090;BME280;3073;42.660;23.316;2023-02-22T00:52:07;94494.16;;;8.13;67.55
6090;BME280;3073;42.660;23.316;2023-02-22T00:54:34;94493.38;;;8.01;69.98
6090;BME280;3073;42.660;23.316;2023-02-22T00:57:01;94490.84;;;8.01;69.38
6090;BME280;3073;42.660;23.316;2023-02-22T00:59:30;94486.28;;;7.91;69.89
6090;BME280;3073;42.660;23.316;2023-02-22T01:01:57;94486.88;;;7.93;70.83
6090;BME280;3073;42.660;23.316;2023-02-22T01:04:24;94474.59;;;7.90;71.30
6090;BME280;3073;42.660;23.316;2023-02-22T01:06:51;94475.59;;;8.01;70.63
6090;BME280;3073;42.660;23.316;2023-02-22T01:09:18;94477.78;;;7.97;70.65
6090;BME280;3073;42.660;23.316;2023-02-22T01:11:46;94471.63;;;7.93;70.62
6090;BME280;3073;42.660;23.316;2023-02-22T01:14:13;94473.84;;;7.90;71.22
6090;BME280;3073;42.660;23.316;2023-02-22T01:16:41;94468.84;;;7.95;72.06
6090;BME280;3073;42.660;23.316;2023-02-22T01:19:08;94464.44;;;7.90;72.12
6090;BME280;3073;42.660;23.316;2023-02-22T01:21:38;94467.50;;;7.81;72.60
6090;BME280;3073;42.660;23.316;2023-02-22T01:24:06;94456.03;;;7.66;73.29
6090;BME280;3073;42.660;23.316;2023-02-22T01:26:33;94463.41;;;7.68;73.47
6090;BME280;3073;42.660;23.316;2023-02-22T01:29:00;94468.16;;;7.64;74.29
6090;BME280;3073;42.660;23.316;2023-02-22T01:31:27;94462.06;;;7.54;75.45
6090;BME280;3073;42.660;23.316;2023-02-22T01:33:55;94453.69;;;7.53;76.07
6090;BME280;3073;42.660;23.316;2023-02-22T01:36:22;94459.84;;;7.46;76.48
6090;BME280;3073;42.660;23.316;2023-02-22T01:38:49;94447.94;;;7.46;77.91
6090;BME280;3073;42.660;23.316;2023-02-22T01:41:16;94454.88;;;7.51;78.21
6090;BME280;3073;42.660;23.316;2023-02-22T01:43:43;94461.31;;;7.53;78.84
6090;BME280;3073;42.660;23.316;2023-02-22T01:46:19;94465.81;;;7.51;79.31
6090;BME280;3073;42.660;23.316;2023-02-22T01:48:49;94467.97;;;7.36;81.82
6090;BME280;3073;42.660;23.316;2023-02-22T01:51:22;94461.00;;;7.32;82.01
6090;BME280;3073;42.660;23.316;2023-02-22T01:53:54;94474.91;;;7.29;82.84
6090;BME280;3073;42.660;23.316;2023-02-22T01:56:24;94472.81;;;7.26;82.55
6090;BME280;3073;42.660;23.316;2023-02-22T01:58:56;94475.69;;;7.30;82.21
6090;BME280;3073;42.660;23.316;2023-02-22T02:01:27;94472.13;;;7.31;82.36
6090;BME280;3073;42.660;23.316;2023-02-22T02:03:56;94463.78;;;7.42;80.21
6090;BME280;3073;42.660;23.316;2023-02-22T02:06:26;94464.78;;;7.41;79.50
6090;BME280;3073;42.660;23.316;2023-02-22T02:08:57;94462.00;;;7.31;79.34
6090;BME280;3073;42.660;23.316;2023-02-22T02:11:26;94462.66;;;7.26;80.58
6090;BME280;3073;42.660;23.316;2023-02-22T02:13:55;94466.50;;;7.17;81.39
6090;BME280;3073;42.660;23.316;2023-02-22T02:16:23;94472.22;;;7.24;82.49
6090;BME280;3073;42.660;23.316;2023-02-22T02:18:52;94474.03;;;7.35;83.10
6090;BME280;3073;42.660;23.316;2023-02-22T02:21:52;94471.72;;;7.34;81.83
6090;BME280;3073;42.660;23.316;2023-02-22T02:25:06;94467.50;;;7.28;83.98
6090;BME280;3073;42.660;23.316;2023-02-22T02:27:48;94474.56;;;7.25;84.01
6090;BME280;3073;42.660;23.316;2023-02-22T02:33:40;94480.59;;;6.95;87.41
6090;BME280;3073;42.660;23.316;2023-02-22T02:36:15;94486.81;;;6.81;89.33
6090;BME280;3073;42.660;23.316;2023-02-22T02:38:45;94486.69;;;6.76;90.27
6090;BME280;3073;42.660;23.316;2023-02-22T02:41:20;94488.25;;;6.77;90.79
6090;BME280;3073;42.660;23.316;2023-02-22T02:43:54;94493.66;;;6.80;90.69
6090;BME280;3073;42.660;23.316;2023-02-22T02:46:25;94490.97;;;6.75;90.14
6090;BME280;3073;42.660;23.316;2023-02-22T02:48:56;94487.03;;;6.61;90.56
6090;BME280;3073;42.660;23.316;2023-02-22T02:51:28;94490.22;;;6.56;92.78
6090;BME280;3073;42.660;23.316;2023-02-22T02:53:56;94493.44;;;6.45;93.21
6090;BME280;3073;42.660;23.316;2023-02-22T02:56:23;94493.09;;;6.42;94.77
6090;BME280;3073;42.660;23.316;2023-02-22T02:58:52;94502.44;;;6.41;95.80
6090;BME280;3073;42.660;23.316;2023-02-22T03:01:40;94497.72;;;6.45;95.63
6090;BME280;3073;42.660;23.316;2023-02-22T03:04:39;94487.75;;;6.50;96.02
6090;BME280;3073;42.660;23.316;2023-02-22T03:07:31;94491.06;;;6.50;95.02
6090;BME280;3073;42.660;23.316;2023-02-22T03:10:16;94492.03;;;6.49;94.89
6090;BME280;3073;42.660;23.316;2023-02-22T03:12:50;94491.47;;;6.47;96.08
6090;BME280;3073;42.660;23.316;2023-02-22T03:15:23;94490.06;;;6.51;95.70
6090;BME280;3073;42.660;23.316;2023-02-22T03:18:01;94501.59;;;6.47;95.83
6090;BME280;3073;42.660;23.316;2023-02-22T03:20:40;94489.50;;;6.49;97.95
6090;BME280;3073;42.660;23.316;2023-02-22T03:23:16;94493.72;;;6.55;96.82
6090;BME280;3073;42.660;23.316;2023-02-22T03:25:50;94490.41;;;6.55;96.23
6090;BME280;3073;42.660;23.316;2023-02-22T03:28:21;94480.44;;;6.60;97.59
6090;BME280;3073;42.660;23.316;2023-02-22T03:30:54;94490.28;;;6.68;98.19
6090;BME280;3073;42.660;23.316;2023-02-22T03:33:26;94490.06;;;6.69;98.48
6090;BME280;3073;42.660;23.316;2023-02-22T03:36:03;94481.88;;;6.67;97.43
6090;BME280;3073;42.660;23.316;2023-02-22T03:38:33;94493.66;;;6.44;99.09
6090;BME280;3073;42.660;23.316;2023-02-22T03:41:03;94485.53;;;6.35;99.49
6090;BME280;3073;42.660;23.316;2023-02-22T03:43:36;94495.41;;;6.00;100.00
6090;BME280;3073;42.660;23.316;2023-02-22T03:46:05;94488.22;;;5.97;100.00
6090;BME280;3073;42.660;23.316;2023-02-22T03:48:38;94496.41;;;5.99;100.00
6090;BME280;3073;42.660;23.316;2023-02-22T03:51:10;94485.63;;;6.04;100.00
6090;BME280;3073;42.660;23.316;2023-02-22T03:53:40;94483.25;;;6.09;100.00
6090;BME280;3073;42.660;23.316;2023-02-22T03:56:14;94486.00;;;6.07;100.00
6090;BME280;3073;42.660;23.316;2023-02-22T03:58:45;94494.72;;;6.11;100.00
6090;BME280;3073;42.660;23.316;2023-02-22T04:01:13;94480.06;;;6.20;100.00
6090;BME280;3073;42.660;23.316;2023-02-22T04:03:40;94483.34;;;6.20;100.00
6090;BME280;3073;42.660;23.316;2023-02-22T04:06:08;94482.72;;;6.25;100.00
6090;BME280;3073;42.660;23.316;2023-02-22T04:08:36;94483.91;;;6.22;100.00
6090;BME280;3073;42.660;23.316;2023-02-22T04:11:03;94478.50;;;6.19;100.00
6090;BME280;3073;42.660;23.316;2023-02-22T04:13:50;94481.59;;;6.21;100.00
6090;BME280;3073;42.660;23.316;2023-02-22T04:16:19;94479.16;;;6.33;100.00
6090;BME280;3073;42.660;23.316;2023-02-22T04:18:46;94479.44;;;6.43;99.97
6090;BME280;3073;42.660;23.316;2023-02-22T04:21:13;94475.84;;;6.50;97.43
6090;BME280;3073;42.660;23.316;2023-02-22T04:23:41;94478.22;;;6.45;97.19
6090;BME280;3073;42.660;23.316;2023-02-22T04:26:08;94488.09;;;6.53;97.34
6090;BME280;3073;42.660;23.316;2023-02-22T04:28:35;94486.25;;;6.42;100.00
6090;BME280;3073;42.660;23.316;2023-02-22T04:31:02;94483.78;;;6.36;100.00
6090;BME280;3073;42.660;23.316;2023-02-22T04:33:29;94492.00;;;6.31;100.00
6090;BME280;3073;42.660;23.316;2023-02-22T04:35:55;94495.53;;;6.30;100.00
6090;BME280;3073;42.660;23.316;2023-02-22T04:38:24;94496.06;;;6.14;100.00
6090;BME280;3073;42.660;23.316;2023-02-22T04:40:53;94498.09;;;6.05;100.00
6090;BME280;3073;42.660;23.316;2023-02-22T04:43:20;94499.47;;;6.01;100.00
6090;BME280;3073;42.660;23.316;2023-02-22T04:45:47;94501.66;;;5.98;100.00
6090;BME280;3073;42.660;23.316;2023-02-22T04:48:14;94497.78;;;5.95;100.00
6090;BME280;3073;42.660;23.316;2023-02-22T04:50:41;94493.19;;;5.86;100.00
6090;BME280;3073;42.660;23.316;2023-02-22T04:53:08;94497.28;;;5.87;100.00
6090;BME280;3073;42.660;23.316;2023-02-22T04:55:35;94489.69;;;5.87;100.00
6090;BME280;3073;42.660;23.316;2023-02-22T04:58:03;94492.00;;;5.88;100.00
6090;BME280;3073;42.660;23.316;2023-02-22T05:00:30;94488.13;;;5.86;100.00
6090;BME280;3073;42.660;23.316;2023-02-22T05:02:57;94499.47;;;5.77;100.00
6090;BME280;3073;42.660;23.316;2023-02-22T05:05:24;94488.50;;;5.83;100.00
6090;BME280;3073;42.660;23.316;2023-02-22T05:07:51;94495.94;;;5.78;100.00
6090;BME280;3073;42.660;23.316;2023-02-22T05:10:18;94494.81;;;5.74;100.00
6090;BME280;3073;42.660;23.316;2023-02-22T05:12:45;94499.72;;;5.68;100.00
6090;BME280;3073;42.660;23.316;2023-02-22T05:15:17;94501.28;;;5.69;100.00
6090;BME280;3073;42.660;23.316;2023-02-22T05:17:46;94502.78;;;5.70;100.00
6090;BME280;3073;42.660;23.316;2023-02-22T05:20:20;94502.00;;;5.77;100.00
6090;BME280;3073;42.660;23.316;2023-02-22T05:22:48;94512.31;;;5.75;100.00
6090;BME280;3073;42.660;23.316;2023-02-22T05:25:16;94511.59;;;5.68;100.00
6090;BME280;3073;42.660;23.316;2023-02-22T05:27:48;94514.06;;;5.75;100.00
6090;BME280;3073;42.660;23.316;2023-02-22T05:30:17;94521.34;;;5.64;100.00
6090;BME280;3073;42.660;23.316;2023-02-22T05:32:45;94529.56;;;5.60;100.00
6090;BME280;3073;42.660;23.316;2023-02-22T05:35:12;94530.59;;;5.46;100.00
6090;BME280;3073;42.660;23.316;2023-02-22T05:37:39;94530.09;;;5.31;100.00
6090;BME280;3073;42.660;23.316;2023-02-22T05:40:07;94537.56;;;5.19;100.00
6090;BME280;3073;42.660;23.316;2023-02-22T05:42:34;94540.63;;;5.28;100.00
6090;BME280;3073;42.660;23.316;2023-02-22T05:45:01;94543.06;;;5.03;100.00
6090;BME280;3073;42.660;23.316;2023-02-22T05:47:29;94553.63;;;4.87;100.00
6090;BME280;3073;42.660;23.316;2023-02-22T05:49:56;94554.72;;;5.04;100.00
6090;BME280;3073;42.660;23.316;2023-02-22T05:52:23;94541.06;;;5.11;100.00
6090;BME280;3073;42.660;23.316;2023-02-22T05:54:50;94542.75;;;5.24;100.00
6090;BME280;3073;42.660;23.316;2023-02-22T05:57:17;94544.59;;;5.48;100.00
6090;BME280;3073;42.660;23.316;2023-02-22T05:59:44;94553.69;;;5.62;100.00
6090;BME280;3073;42.660;23.316;2023-02-22T06:02:11;94552.63;;;5.77;100.00
6090;BME280;3073;42.660;23.316;2023-02-22T06:04:39;94553.13;;;5.92;100.00
6090;BME280;3073;42.660;23.316;2023-02-22T06:07:09;94553.88;;;6.24;100.00
6090;BME280;3073;42.660;23.316;2023-02-22T06:09:36;94555.81;;;6.64;100.00
6090;BME280;3073;42.660;23.316;2023-02-22T06:12:04;94559.06;;;7.08;100.00
6090;BME280;3073;42.660;23.316;2023-02-22T06:14:31;94552.09;;;7.51;95.92
6090;BME280;3073;42.660;23.316;2023-02-22T06:16:58;94559.38;;;7.77;87.75
6090;BME280;3073;42.660;23.316;2023-02-22T06:19:26;94559.75;;;8.04;85.35
6090;BME280;3073;42.660;23.316;2023-02-22T06:21:56;94559.22;;;8.14;82.35
6090;BME280;3073;42.660;23.316;2023-02-22T06:24:25;94551.25;;;7.99;81.49
6090;BME280;3073;42.660;23.316;2023-02-22T06:26:54;94551.69;;;7.54;86.56
6090;BME280;3073;42.660;23.316;2023-02-22T06:29:21;94553.19;;;7.44;89.84
6090;BME280;3073;42.660;23.316;2023-02-22T06:31:48;94555.06;;;7.48;89.84
6090;BME280;3073;42.660;23.316;2023-02-22T06:34:15;94550.22;;;7.88;88.22
6090;BME280;3073;42.660;23.316;2023-02-22T06:36:42;94550.50;;;7.68;87.03
6090;BME280;3073;42.660;23.316;2023-02-22T06:39:10;94548.03;;;7.80;87.92
6090;BME280;3073;42.660;23.316;2023-02-22T06:41:37;94555.16;;;8.24;83.50
6090;BME280;3073;42.660;23.316;2023-02-22T06:44:05;94553.06;;;9.03;80.40
6090;BME280;3073;42.660;23.316;2023-02-22T06:46:31;94547.81;;;9.77;72.87
6090;BME280;3073;42.660;23.316;2023-02-22T06:48:59;94551.97;;;10.45;69.20
6090;BME280;3073;42.660;23.316;2023-02-22T06:51:26;94549.59;;;10.94;65.67
6090;BME280;3073;42.660;23.316;2023-02-22T06:53:54;94551.63;;;11.62;62.19
6090;BME280;3073;42.660;23.316;2023-02-22T06:56:22;94551.34;;;12.12;59.91
6090;BME280;3073;42.660;23.316;2023-02-22T06:58:51;94551.53;;;12.00;59.01
6090;BME280;3073;42.660;23.316;2023-02-22T07:01:19;94557.38;;;12.69;57.16
6090;BME280;3073;42.660;23.316;2023-02-22T07:03:48;94555.06;;;12.68;55.80
6090;BME280;3073;42.660;23.316;2023-02-22T07:06:14;94556.28;;;13.02;54.43
6090;BME280;3073;42.660;23.316;2023-02-22T07:08:41;94552.03;;;13.13;53.66
6090;BME280;3073;42.660;23.316;2023-02-22T07:11:08;94551.94;;;13.03;53.60
6090;BME280;3073;42.660;23.316;2023-02-22T07:13:36;94550.41;;;13.79;51.47
6090;BME280;3073;42.660;23.316;2023-02-22T07:16:03;94553.81;;;14.20;50.74
6090;BME280;3073;42.660;23.316;2023-02-22T07:18:30;94556.84;;;13.86;50.08
6090;BME280;3073;42.660;23.316;2023-02-22T07:20:57;94557.94;;;14.36;49.20
6090;BME280;3073;42.660;23.316;2023-02-22T07:23:24;94562.75;;;14.93;48.10
6090;BME280;3073;42.660;23.316;2023-02-22T07:25:51;94564.38;;;14.43;48.31
6090;BME280;3073;42.660;23.316;2023-02-22T07:28:18;94563.75;;;14.92;48.51
6090;BME280;3073;42.660;23.316;2023-02-22T07:30:46;94559.81;;;15.30;47.30
6090;BME280;3073;42.660;23.316;2023-02-22T07:33:13;94559.53;;;15.90;46.87
6090;BME280;3073;42.660;23.316;2023-02-22T07:35:43;94565.47;;;15.86;46.28
6090;BME280;3073;42.660;23.316;2023-02-22T07:38:12;94559.03;;;15.29;46.68
6090;BME280;3073;42.660;23.316;2023-02-22T07:40:40;94556.22;;;16.24;45.44
6090;BME280;3073;42.660;23.316;2023-02-22T07:43:14;94555.47;;;16.52;44.70
6090;BME280;3073;42.660;23.316;2023-02-22T07:45:41;94548.44;;;16.29;44.49
6090;BME280;3073;42.660;23.316;2023-02-22T07:48:10;94541.16;;;16.41;44.61
6090;BME280;3073;42.660;23.316;2023-02-22T07:50:39;94542.25;;;15.42;45.18
6090;BME280;3073;42.660;23.316;2023-02-22T07:53:10;94548.38;;;14.82;46.67
6090;BME280;3073;42.660;23.316;2023-02-22T07:55:37;94552.53;;;15.42;46.60
6090;BME280;3073;42.660;23.316;2023-02-22T07:58:06;94544.50;;;16.08;45.14
6090;BME280;3073;42.660;23.316;2023-02-22T08:00:34;94540.09;;;16.99;43.63
6090;BME280;3073;42.660;23.316;2023-02-22T08:03:05;94547.63;;;17.62;42.56
6090;BME280;3073;42.660;23.316;2023-02-22T08:05:35;94543.41;;;18.41;41.05
6090;BME280;3073;42.660;23.316;2023-02-22T08:08:03;94538.19;;;18.09;40.73
6090;BME280;3073;42.660;23.316;2023-02-22T08:10:30;94542.22;;;18.66;40.27
6090;BME280;3073;42.660;23.316;2023-02-22T08:12:58;94533.78;;;18.28;41.06
6090;BME280;3073;42.660;23.316;2023-02-22T08:15:27;94530.81;;;18.21;41.05
6090;BME280;3073;42.660;23.316;2023-02-22T08:17:54;94531.66;;;18.94;40.37
6090;BME280;3073;42.660;23.316;2023-02-22T08:20:22;94539.59;;;19.88;38.97
6090;BME280;3073;42.660;23.316;2023-02-22T08:22:50;94534.94;;;20.57;38.15
6090;BME280;3073;42.660;23.316;2023-02-22T08:25:18;94539.06;;;20.36;37.89
6090;BME280;3073;42.660;23.316;2023-02-22T08:27:46;94547.84;;;21.58;36.74
6090;BME280;3073;42.660;23.316;2023-02-22T08:30:15;94531.19;;;21.68;35.62
6090;BME280;3073;42.660;23.316;2023-02-22T08:32:44;94539.47;;;21.13;35.97
6090;BME280;3073;42.660;23.316;2023-02-22T08:35:11;94527.88;;;21.11;36.67
6090;BME280;3073;42.660;23.316;2023-02-22T08:37:41;94527.53;;;22.29;35.05
6090;BME280;3073;42.660;23.316;2023-02-22T08:40:10;94531.66;;;22.47;34.85
6090;BME280;3073;42.660;23.316;2023-02-22T08:42:37;94533.72;;;22.79;34.09
6090;BME280;3073;42.660;23.316;2023-02-22T08:45:05;94523.69;;;23.66;33.35
6090;BME280;3073;42.660;23.316;2023-02-22T08:47:32;94526.94;;;23.83;33.01
6090;BME280;3073;42.660;23.316;2023-02-22T08:49:59;94527.69;;;22.41;34.32
6090;BME280;3073;42.660;23.316;2023-02-22T08:52:26;94522.81;;;22.94;34.21
6090;BME280;3073;42.660;23.316;2023-02-22T08:54:53;94523.47;;;22.83;34.39
6090;BME280;3073;42.660;23.316;2023-02-22T08:57:22;94518.47;;;23.45;33.57
6090;BME280;3073;42.660;23.316;2023-02-22T08:59:49;94523.69;;;23.45;33.79
6090;BME280;3073;42.660;23.316;2023-02-22T09:02:20;94522.13;;;23.94;33.09
6090;BME280;3073;42.660;23.316;2023-02-22T09:04:47;94520.78;;;23.67;33.39
6090;BME280;3073;42.660;23.316;2023-02-22T09:07:15;94517.28;;;23.34;33.58
6090;BME280;3073;42.660;23.316;2023-02-22T09:09:42;94522.97;;;22.89;33.44
6090;BME280;3073;42.660;23.316;2023-02-22T09:12:09;94513.69;;;23.18;33.80
6090;BME280;3073;42.660;23.316;2023-02-22T09:14:37;94518.00;;;24.14;32.95
6090;BME280;3073;42.660;23.316;2023-02-22T09:17:04;94511.72;;;23.44;32.94
6090;BME280;3073;42.660;23.316;2023-02-22T09:19:31;94513.63;;;22.97;34.07
6090;BME280;3073;42.660;23.316;2023-02-22T09:21:58;94514.13;;;22.10;34.87
6090;BME280;3073;42.660;23.316;2023-02-22T09:24:25;94506.66;;;23.09;34.01
6090;BME280;3073;42.660;23.316;2023-02-22T09:26:52;94511.88;;;22.63;34.36
6090;BME280;3073;42.660;23.316;2023-02-22T09:29:20;94509.09;;;22.77;33.71
6090;BME280;3073;42.660;23.316;2023-02-22T09:31:51;94507.81;;;21.76;34.65
6090;BME280;3073;42.660;23.316;2023-02-22T09:34:19;94498.63;;;20.57;36.60
6090;BME280;3073;42.660;23.316;2023-02-22T09:36:48;94498.94;;;21.60;35.49
6090;BME280;3073;42.660;23.316;2023-02-22T09:39:15;94506.38;;;22.56;34.05
6090;BME280;3073;42.660;23.316;2023-02-22T09:41:49;94496.50;;;21.64;34.82
6090;BME280;3073;42.660;23.316;2023-02-22T09:44:24;94502.28;;;19.89;37.17
6090;BME280;3073;42.660;23.316;2023-02-22T09:46:56;94500.19;;;20.14;37.32
6090;BME280;3073;42.660;23.316;2023-02-22T09:49:27;94491.50;;;19.74;36.49
6090;BME280;3073;42.660;23.316;2023-02-22T09:52:00;94496.28;;;20.47;36.19
6090;BME280;3073;42.660;23.316;2023-02-22T09:54:34;94495.44;;;20.99;35.10
6090;BME280;3073;42.660;23.316;2023-02-22T09:57:05;94483.56;;;19.92;36.16
6090;BME280;3073;42.660;23.316;2023-02-22T09:59:37;94495.25;;;20.87;35.77
6090;BME280;3073;42.660;23.316;2023-02-22T10:02:18;94496.66;;;21.02;35.59
6090;BME280;3073;42.660;23.316;2023-02-22T10:04:53;94487.16;;;21.37;34.66
6090;BME280;3073;42.660;23.316;2023-02-22T10:07:29;94481.09;;;20.63;35.90
6090;BME280;3073;42.660;23.316;2023-02-22T10:09:57;94473.72;;;20.87;35.62
6090;BME280;3073;42.660;23.316;2023-02-22T10:12:38;94467.78;;;20.95;35.90
6090;BME280;3073;42.660;23.316;2023-02-22T10:15:25;94466.81;;;21.22;35.59
6090;BME280;3073;42.660;23.316;2023-02-22T10:18:04;94455.19;;;20.63;36.47
6090;BME280;3073;42.660;23.316;2023-02-22T10:20:50;94456.97;;;22.01;35.15
6090;BME280;3073;42.660;23.316;2023-02-22T10:23:24;94451.59;;;22.70;33.97
6090;BME280;3073;42.660;23.316;2023-02-22T10:26:07;94441.63;;;24.25;32.51
6090;BME280;3073;42.660;23.316;2023-02-22T10:28:41;94438.25;;;24.82;31.48
6090;BME280;3073;42.660;23.316;2023-02-22T10:31:20;94435.63;;;25.70;30.59
6090;BME280;3073;42.660;23.316;2023-02-22T10:33:55;94433.78;;;25.71;30.63
6090;BME280;3073;42.660;23.316;2023-02-22T10:36:24;94425.41;;;26.21;30.37
6090;BME280;3073;42.660;23.316;2023-02-22T10:38:54;94423.91;;;23.24;32.87
6090;BME280;3073;42.660;23.316;2023-02-22T10:41:26;94406.16;;;24.45;31.83
6090;BME280;3073;42.660;23.316;2023-02-22T10:43:54;94409.19;;;24.35;32.06
6090;BME280;3073;42.660;23.316;2023-02-22T10:46:21;94410.03;;;23.32;32.86
6090;BME280;3073;42.660;23.316;2023-02-22T10:48:53;94403.84;;;23.66;32.39
6090;BME280;3073;42.660;23.316;2023-02-22T10:51:21;94406.22;;;24.36;32.06
6090;BME280;3073;42.660;23.316;2023-02-22T10:53:57;94404.41;;;25.09;31.25
6090;BME280;3073;42.660;23.316;2023-02-22T10:56:25;94403.38;;;24.17;31.35
6090;BME280;3073;42.660;23.316;2023-02-22T10:58:54;94395.69;;;23.88;32.33
6090;BME280;3073;42.660;23.316;2023-02-22T11:01:25;94393.09;;;25.18;31.01
6090;BME280;3073;42.660;23.316;2023-02-22T11:03:59;94393.31;;;22.16;33.77
6090;BME280;3073;42.660;23.316;2023-02-22T11:06:27;94390.28;;;22.89;33.28
6090;BME280;3073;42.660;23.316;2023-02-22T11:09:04;94386.03;;;22.85;32.59
6090;BME280;3073;42.660;23.316;2023-02-22T11:11:32;94390.63;;;23.29;31.71
6090;BME280;3073;42.660;23.316;2023-02-22T11:13:59;94383.25;;;23.73;31.01
6090;BME280;3073;42.660;23.316;2023-02-22T11:16:31;94373.31;;;24.56;30.42
6090;BME280;3073;42.660;23.316;2023-02-22T11:19:02;94385.75;;;21.76;33.32
6090;BME280;3073;42.660;23.316;2023-02-22T11:21:30;94374.00;;;21.27;33.88
6090;BME280;3073;42.660;23.316;2023-02-22T11:24:02;94373.94;;;20.28;34.75
6090;BME280;3073;42.660;23.316;2023-02-22T11:26:37;94365.81;;;19.98;36.11
6090;BME280;3073;42.660;23.316;2023-02-22T11:29:17;94364.34;;;21.02;34.71
6090;BME280;3073;42.660;23.316;2023-02-22T11:31:46;94353.16;;;20.67;35.41
6090;BME280;3073;42.660;23.316;2023-02-22T11:34:33;94353.66;;;22.94;33.38
6090;BME280;3073;42.660;23.316;2023-02-22T11:37:25;94362.09;;;23.86;31.39
6090;BME280;3073;42.660;23.316;2023-02-22T11:40:06;94347.59;;;24.09;31.12
6090;BME280;3073;42.660;23.316;2023-02-22T11:42:36;94356.56;;;24.93;30.54
6090;BME280;3073;42.660;23.316;2023-02-22T11:45:14;94350.03;;;24.75;30.24
6090;BME280;3073;42.660;23.316;2023-02-22T11:47:47;94353.47;;;23.62;31.30
6090;BME280;3073;42.660;23.316;2023-02-22T11:50:26;94345.63;;;24.06;30.89
6090;BME280;3073;42.660;23.316;2023-02-22T11:53:04;94343.69;;;24.03;31.04
6090;BME280;3073;42.660;23.316;2023-02-22T11:55:38;94331.09;;;22.48;32.30
6090;BME280;3073;42.660;23.316;2023-02-22T11:58:25;94331.50;;;22.59;32.32
6090;BME280;3073;42.660;23.316;2023-02-22T12:01:01;94331.97;;;21.77;32.78
6090;BME280;3073;42.660;23.316;2023-02-22T12:03:42;94323.44;;;23.23;31.97
6090;BME280;3073;42.660;23.316;2023-02-22T12:06:45;94329.34;;;22.61;31.92
6090;BME280;3073;42.660;23.316;2023-02-22T12:09:17;94324.53;;;21.58;32.92
6090;BME280;3073;42.660;23.316;2023-02-22T12:11:56;94317.78;;;21.05;33.43
6090;BME280;3073;42.660;23.316;2023-02-22T12:14:33;94317.06;;;21.31;33.00
6090;BME280;3073;42.660;23.316;2023-02-22T12:17:30;94316.59;;;21.54;33.29
6090;BME280;3073;42.660;23.316;2023-02-22T12:20:02;94317.34;;;22.77;31.98
6090;BME280;3073;42.660;23.316;2023-02-22T12:22:40;94306.34;;;23.13;31.21
6090;BME280;3073;42.660;23.316;2023-02-22T12:25:17;94306.22;;;23.09;31.42
6090;BME280;3073;42.660;23.316;2023-02-22T12:27:48;94302.97;;;24.35;30.25
6090;BME280;3073;42.660;23.316;2023-02-22T12:30:19;94304.28;;;24.17;29.73
6090;BME280;3073;42.660;23.316;2023-02-22T12:32:50;94296.50;;;23.19;30.79
6090;BME280;3073;42.660;23.316;2023-02-22T12:35:22;94294.09;;;23.55;31.05
6090;BME280;3073;42.660;23.316;2023-02-22T12:38:00;94288.13;;;22.42;31.91
6090;BME280;3073;42.660;23.316;2023-02-22T12:40:34;94282.50;;;22.40;31.87
6090;BME280;3073;42.660;23.316;2023-02-22T12:43:08;94291.13;;;24.01;31.08
6090;BME280;3073;42.660;23.316;2023-02-22T12:45:42;94290.50;;;24.41;30.26
6090;BME280;3073;42.660;23.316;2023-02-22T12:48:24;94290.97;;;22.29;31.88
6090;BME280;3073;42.660;23.316;2023-02-22T12:50:58;94291.06;;;21.56;32.89
6090;BME280;3073;42.660;23.316;2023-02-22T12:53:30;94291.25;;;21.51;32.89
6090;BME280;3073;42.660;23.316;2023-02-22T12:56:15;94284.16;;;21.69;32.71
6090;BME280;3073;42.660;23.316;2023-02-22T12:58:50;94285.50;;;22.51;31.88
6090;BME280;3073;42.660;23.316;2023-02-22T13:01:20;94282.22;;;23.25;30.94
6090;BME280;3073;42.660;23.316;2023-02-22T13:03:48;94284.84;;;23.25;30.96
6090;BME280;3073;42.660;23.316;2023-02-22T13:06:27;94280.34;;;23.13;31.55
6090;BME280;3073;42.660;23.316;2023-02-22T13:09:09;94280.56;;;21.99;32.29
6090;BME280;3073;42.660;23.316;2023-02-22T13:11:48;94270.31;;;22.82;31.61
6090;BME280;3073;42.660;23.316;2023-02-22T13:14:38;94278.00;;;22.79;31.19
6090;BME280;3073;42.660;23.316;2023-02-22T13:17:12;94275.09;;;23.01;31.17
6090;BME280;3073;42.660;23.316;2023-02-22T13:19:51;94275.75;;;23.64;30.15
6090;BME280;3073;42.660;23.316;2023-02-22T13:22:25;94271.75;;;23.78;29.92
6090;BME280;3073;42.660;23.316;2023-02-22T13:25:05;94274.47;;;23.16;30.17
6090;BME280;3073;42.660;23.316;2023-02-22T13:27:40;94273.50;;;22.58;30.66
6090;BME280;3073;42.660;23.316;2023-02-22T13:30:15;94278.75;;;23.41;29.54
6090;BME280;3073;42.660;23.316;2023-02-22T13:33:06;94266.63;;;23.37;29.82
6090;BME280;3073;42.660;23.316;2023-02-22T13:35:47;94268.88;;;22.93;30.36
6090;BME280;3073;42.660;23.316;2023-02-22T13:41:49;94267.19;;;22.89;30.71